Terminal Aerodrome Forecast
Issued by NWS

Current Version | Previous Version | Text Only | Print | Product List | Glossary On
Versions: 1 2 3 4 5 6 7 8 9 10 11 12 13 14 15 16
849
FTUS45 KMSO 201140
TAFSMN
TAF
KSMN 201140Z 2012/2112 VRB03KT P6SM BKN100
     FM201300 VRB05KT P6SM VCSH OVC050
     FM201800 25005KT P6SM -RASN OVC060
     FM202200 27006KT 6SM -RASN BR OVC040
     FM210200 23010KT P6SM VCSH OVC060
      AMD LTD TO CLD VIS AND WIND=

USA.gov is the U.S. government's official web portal to all federal, state and local government web resources and services.